Time;durP1;ratioP1;P1;durP2;ratioP2;P2;SDS_P1;SDS_P2;PMS_P1;PMS_P2;Temp;Humidity;BMP_temperature;BMP_pressure;BME280_temperature;BME280_humidity;BME280_pressure;Samples;Min_cycle;Max_cycle;Signal;HPM_P1;HPM_P2
2021/10/04 00:00:49;;;;;;;16.05;9.05;;;;;;;22.12;62.71;101662.44;1824795;77;20933;-44
2021/10/04 00:03:15;;;;;;;12.50;8.65;;;;;;;22.09;62.68;101657.52;1820372;77;21045;-43
2021/10/04 00:05:41;;;;;;;10.80;7.83;;;;;;;22.10;62.69;101655.58;1812486;77;22072;-44
2021/10/04 00:08:07;;;;;;;11.43;7.65;;;;;;;22.11;62.68;101658.02;1809417;77;20854;-45
2021/10/04 00:10:33;;;;;;;12.30;7.17;;;;;;;22.12;62.79;101651.35;1827710;77;21459;-43
2021/10/04 00:12:59;;;;;;;11.08;7.50;;;;;;;22.15;62.84;101654.89;1805223;77;20976;-43
2021/10/04 00:15:29;;;;;;;13.15;8.48;;;;;;;22.16;62.88;101650.99;1809582;77;21530;-44
2021/10/04 00:17:54;;;;;;;12.50;7.87;;;;;;;22.16;62.92;101648.78;1812651;77;21048;-44
2021/10/04 00:20:20;;;;;;;12.63;9.03;;;;;;;22.15;62.86;101643.80;1824761;77;20882;-45
2021/10/04 00:22:46;;;;;;;14.10;8.03;;;;;;;22.15;62.81;101641.62;1816137;77;21604;-46
2021/10/04 00:25:12;;;;;;;11.90;7.50;;;;;;;22.14;62.73;101634.43;1816089;77;21091;-44
2021/10/04 00:27:38;;;;;;;12.03;8.30;;;;;;;22.13;62.68;101630.01;1826974;76;21527;-44
2021/10/04 00:30:06;;;;;;;11.35;7.95;;;;;;;22.11;62.62;101637.79;1842309;76;21301;-48
2021/10/04 00:32:34;;;;;;;11.28;8.08;;;;;;;22.09;62.57;101638.69;1840926;76;21067;-44
2021/10/04 00:35:01;;;;;;;9.88;7.90;;;;;;;22.06;62.52;101636.53;1826053;76;21139;-45
2021/10/04 00:37:27;;;;;;;11.20;7.67;;;;;;;22.03;62.50;101630.20;1828148;76;21067;-44
2021/10/04 00:39:53;;;;;;;10.23;7.42;;;;;;;22.00;62.47;101634.42;1828140;76;21035;-43
2021/10/04 00:42:21;;;;;;;8.85;6.97;;;;;;;21.97;62.45;101630.06;1815525;76;22156;-45
2021/10/04 00:44:49;;;;;;;10.85;6.85;;;;;;;21.98;62.43;101633.09;1822068;76;21096;-45
2021/10/04 00:47:17;;;;;;;9.90;7.03;;;;;;;22.00;62.47;101633.03;1830146;77;21064;-44
2021/10/04 00:49:43;;;;;;;9.25;6.55;;;;;;;22.01;62.54;101636.07;1824563;76;21052;-46
2021/10/04 00:52:09;;;;;;;8.95;6.50;;;;;;;22.04;62.62;101633.23;1806726;77;21028;-44
2021/10/04 00:54:36;;;;;;;9.10;6.80;;;;;;;22.03;62.67;101633.80;1823280;76;21306;-45
2021/10/04 00:57:02;;;;;;;11.35;7.72;;;;;;;22.04;62.68;101634.06;1826406;76;21442;-45
2021/10/04 00:59:28;;;;;;;10.20;7.17;;;;;;;22.05;62.66;101641.25;1823921;76;21111;-44
2021/10/04 01:01:54;;;;;;;12.05;7.55;;;;;;;22.04;62.61;101631.84;1809064;76;21483;-45
2021/10/04 01:04:25;;;;;;;9.78;7.30;;;;;;;22.03;62.53;101634.36;1844094;76;21106;-44
2021/10/04 01:06:48;;;;;;;9.40;7.37;;;;;;;22.01;62.48;101627.76;1814192;77;21851;-46
2021/10/04 01:09:14;;;;;;;10.15;7.37;;;;;;;22.00;62.42;101628.05;1779073;80;21053;-44
2021/10/04 01:11:40;;;;;;;11.73;7.22;;;;;;;21.97;62.38;101625.91;1754640;80;20972;-45
2021/10/04 01:14:06;;;;;;;10.32;7.65;;;;;;;21.94;62.34;101627.91;1833730;76;21333;-46
2021/10/04 01:16:32;;;;;;;10.75;7.33;;;;;;;21.92;62.31;101632.89;1833053;76;21138;-44
2021/10/04 01:18:59;;;;;;;10.32;7.17;;;;;;;21.90;62.31;101635.16;1835057;76;21493;-44
2021/10/04 01:21:25;;;;;;;10.82;7.08;;;;;;;21.86;62.27;101634.93;1833649;76;20861;-46
2021/10/04 01:23:51;;;;;;;8.45;6.62;;;;;;;21.87;62.27;101633.25;1841251;76;21687;-44
2021/10/04 01:26:17;;;;;;;8.73;6.08;;;;;;;21.89;62.32;101634.34;1843442;76;21044;-43
2021/10/04 01:28:43;;;;;;;8.75;5.90;;;;;;;21.90;62.37;101637.34;1837721;76;21495;-43
2021/10/04 01:31:09;;;;;;;9.20;6.47;;;;;;;21.92;62.43;101632.89;1832013;76;22107;-44
2021/10/04 01:33:35;;;;;;;9.58;6.80;;;;;;;21.93;62.49;101638.73;1774465;78;21077;-46
2021/10/04 01:36:01;;;;;;;11.20;7.10;;;;;;;21.93;62.49;101642.89;1813756;77;21008;-46
2021/10/04 01:38:27;;;;;;;9.73;7.15;;;;;;;21.93;62.47;101637.34;1813013;77;21099;-45
2021/10/04 01:40:53;;;;;;;10.40;7.03;;;;;;;21.92;62.40;101632.89;1819161;77;21391;-45
2021/10/04 01:43:19;;;;;;;8.75;6.45;;;;;;;21.92;62.34;101632.89;1820824;77;21635;-45
2021/10/04 01:45:45;;;;;;;8.10;6.35;;;;;;;21.90;62.29;101637.94;1817926;77;20948;-45
2021/10/04 01:48:11;;;;;;;9.75;6.75;;;;;;;21.89;62.23;101637.11;1828332;77;21134;-45
2021/10/04 01:50:38;;;;;;;9.23;6.67;;;;;;;21.86;62.18;101634.93;1821713;77;20835;-44
2021/10/04 01:53:05;;;;;;;9.75;6.33;;;;;;;21.84;62.14;101635.81;1822589;77;20862;-44
2021/10/04 01:55:32;;;;;;;10.65;7.03;;;;;;;21.81;62.09;101638.61;1827088;77;21075;-43
2021/10/04 01:57:58;;;;;;;8.63;6.45;;;;;;;21.80;62.05;101637.56;1821177;77;21068;-46
2021/10/04 02:00:24;;;;;;;10.70;6.78;;;;;;;21.77;62.05;101638.14;1821287;77;21309;-45
2021/10/04 02:02:53;;;;;;;8.70;6.35;;;;;;;21.74;62.04;101634.61;1778475;78;20912;-45
2021/10/04 02:05:20;;;;;;;11.12;6.47;;;;;;;21.72;62.01;101635.49;1770585;79;21492;-45
2021/10/04 02:07:49;;;;;;;8.30;6.20;;;;;;;21.71;62.01;101633.28;1799596;79;21321;-44
2021/10/04 02:10:18;;;;;;;7.42;5.47;;;;;;;21.73;62.03;101636.55;1799474;79;21117;-44
2021/10/04 02:12:44;;;;;;;8.00;5.83;;;;;;;21.75;62.11;101635.70;1780587;79;21051;-44
2021/10/04 02:15:10;;;;;;;9.45;5.95;;;;;;;21.77;62.18;101643.13;1793384;79;21067;-44
2021/10/04 02:17:38;;;;;;;9.70;6.45;;;;;;;21.79;62.22;101642.83;1791527;78;21344;-44
2021/10/04 02:20:06;;;;;;;7.97;6.15;;;;;;;21.79;62.23;101642.83;1807290;78;21516;-43
2021/10/04 02:22:32;;;;;;;8.65;6.08;;;;;;;21.79;62.17;101638.11;1818819;78;21548;-45
2021/10/04 02:24:58;;;;;;;8.58;5.87;;;;;;;21.78;62.13;101633.70;1797268;78;21073;-48
2021/10/04 02:27:24;;;;;;;7.62;6.10;;;;;;;21.79;62.04;101642.27;1787486;78;21489;-47
2021/10/04 02:29:50;;;;;;;8.03;6.08;;;;;;;21.78;61.98;101635.08;1802046;78;20952;-43
2021/10/04 02:32:17;;;;;;;7.80;6.22;;;;;;;21.77;61.94;101632.60;1815173;78;20950;-46
2021/10/04 02:34:43;;;;;;;9.83;6.67;;;;;;;21.74;61.87;101639.59;1751918;80;21414;-44
2021/10/04 02:37:09;;;;;;;8.68;6.12;;;;;;;21.73;61.83;101632.95;1791074;79;21006;-44
2021/10/04 02:39:35;;;;;;;8.88;5.80;;;;;;;21.70;61.79;101634.41;1740897;81;21549;-45
2021/10/04 02:42:01;;;;;;;8.60;6.08;;;;;;;21.67;61.76;101633.64;1733165;81;21046;-46
2021/10/04 02:44:27;;;;;;;8.63;6.70;;;;;;;21.66;61.74;101636.70;1727025;81;21501;-46
2021/10/04 02:46:54;;;;;;;8.55;5.92;;;;;;;21.62;61.74;101637.05;1792222;79;20896;-46
2021/10/04 02:49:20;;;;;;;9.08;6.10;;;;;;;21.60;61.72;101631.81;1781170;79;21105;-46
2021/10/04 02:51:46;;;;;;;8.43;5.58;;;;;;;21.58;61.73;101637.41;1768625;79;21051;-46
2021/10/04 02:54:12;;;;;;;6.45;4.75;;;;;;;21.58;61.71;101632.69;1789218;79;20920;-45
2021/10/04 02:56:38;;;;;;;6.85;5.58;;;;;;;21.61;61.74;101636.78;1785746;78;22175;-46
2021/10/04 02:59:04;;;;;;;6.92;4.80;;;;;;;21.64;61.82;101637.59;1790389;78;21064;-44
2021/10/04 03:01:30;;;;;;;7.90;5.25;;;;;;;21.65;61.90;101635.05;1792402;77;20890;-46
2021/10/04 03:03:56;;;;;;;8.38;5.40;;;;;;;21.67;61.94;101642.50;1820494;77;20976;-44
2021/10/04 03:06:22;;;;;;;11.00;5.42;;;;;;;21.68;61.96;101637.23;1811188;77;21610;-44
2021/10/04 03:08:48;;;;;;;7.20;5.22;;;;;;;21.69;61.96;101644.39;1812797;77;21303;-45
2021/10/04 03:11:14;;;;;;;6.08;4.78;;;;;;;21.72;61.90;101647.40;1830474;76;21106;-44
2021/10/04 03:13:40;;;;;;;7.70;4.78;;;;;;;21.76;61.84;101648.99;1820012;76;20940;-46
2021/10/04 03:16:06;;;;;;;7.62;5.80;;;;;;;21.78;61.75;101653.09;1826417;76;20948;-44
2021/10/04 03:18:32;;;;;;;7.05;5.50;;;;;;;21.81;61.66;101656.63;1823105;76;21105;-44
2021/10/04 03:20:58;;;;;;;7.42;5.17;;;;;;;21.83;61.56;101661.30;1832556;76;21803;-44
2021/10/04 03:23:24;;;;;;;6.25;4.50;;;;;;;21.86;61.48;101657.92;1841676;77;21075;-45
2021/10/04 03:25:50;;;;;;;7.90;4.87;;;;;;;21.88;61.38;101661.78;1822532;76;21083;-46
2021/10/04 03:28:17;;;;;;;8.53;5.72;;;;;;;21.90;61.27;101663.66;1815865;76;20865;-44
2021/10/04 03:30:43;;;;;;;6.95;4.90;;;;;;;21.93;61.17;101660.89;1831608;76;21087;-44
2021/10/04 03:33:09;;;;;;;7.55;4.65;;;;;;;21.94;61.09;101661.95;1822189;77;21120;-44
2021/10/04 03:35:36;;;;;;;6.62;4.75;;;;;;;21.96;61.01;101662.48;1819273;77;21105;-45
2021/10/04 03:38:02;;;;;;;6.65;4.55;;;;;;;21.98;60.90;101664.96;1809965;77;21450;-44
2021/10/04 03:40:28;;;;;;;5.90;4.12;;;;;;;21.99;60.82;101662.42;1827228;76;21036;-45
2021/10/04 03:42:54;;;;;;;5.20;3.12;;;;;;;22.00;60.72;101659.91;1822448;77;21400;-45
2021/10/04 03:45:21;;;;;;;7.12;3.42;;;;;;;22.04;60.63;101659.00;1821634;76;21311;-46
2021/10/04 03:47:47;;;;;;;6.22;3.70;;;;;;;22.10;60.58;101652.80;1830435;76;21041;-44
2021/10/04 03:50:14;;;;;;;4.40;2.55;;;;;;;22.13;60.58;101651.62;1823442;76;20981;-45
2021/10/04 03:52:40;;;;;;;5.58;3.27;;;;;;;22.20;60.61;101652.58;1833275;77;21039;-46
2021/10/04 03:55:07;;;;;;;3.30;2.40;;;;;;;22.24;60.58;101657.77;1823778;77;21510;-45
2021/10/04 03:57:34;;;;;;;5.20;3.27;;;;;;;22.26;60.53;101652.19;1826479;77;21066;-44
2021/10/04 04:00:00;;;;;;;5.00;2.12;;;;;;;22.30;60.42;101647.66;1819559;77;21459;-44
2021/10/04 04:02:26;;;;;;;5.37;2.30;;;;;;;22.33;60.31;101648.98;1820575;76;21105;-46
2021/10/04 04:04:53;;;;;;;5.08;3.02;;;;;;;22.37;60.18;101651.39;1833070;76;21783;-45
2021/10/04 04:07:19;;;;;;;9.68;3.47;;;;;;;22.40;60.05;101654.13;1824680;77;21012;-46
2021/10/04 04:09:45;;;;;;;60.78;13.32;;;;;;;22.40;59.94;101656.34;1837754;77;21076;-45
2021/10/04 04:12:11;;;;;;;8.80;3.77;;;;;;;22.42;59.86;101656.02;1839647;76;20924;-44
2021/10/04 04:14:37;;;;;;;7.42;3.15;;;;;;;22.42;59.78;101665.16;1837438;76;20893;-46
2021/10/04 04:17:03;;;;;;;4.95;2.58;;;;;;;22.42;59.70;101663.77;1829896;76;20897;-49
2021/10/04 04:19:29;;;;;;;8.18;3.35;;;;;;;22.43;59.64;101657.66;1825006;77;21093;-44
2021/10/04 04:21:55;;;;;;;8.65;3.75;;;;;;;22.42;59.57;101655.45;1822587;76;21311;-44
2021/10/04 04:24:21;;;;;;;13.83;3.95;;;;;;;22.41;59.53;101659.34;1816705;77;20865;-46
2021/10/04 04:26:47;;;;;;;6.80;2.80;;;;;;;22.42;59.50;101657.40;1827689;76;21023;-45
2021/10/04 04:29:13;;;;;;;6.22;2.65;;;;;;;22.42;59.45;101662.94;1826188;76;21093;-44
2021/10/04 04:31:39;;;;;;;6.65;2.45;;;;;;;22.41;59.42;101664.89;1826244;76;21448;-46
2021/10/04 04:34:05;;;;;;;10.88;3.65;;;;;;;22.42;59.37;101667.93;1833111;76;21185;-45
2021/10/04 04:36:31;;;;;;;8.45;3.37;;;;;;;22.41;59.32;101666.28;1766412;79;21122;-44
2021/10/04 04:38:57;;;;;;;3.58;2.25;;;;;;;22.42;59.31;101661.55;1780586;78;20888;-45
2021/10/04 04:41:23;;;;;;;8.83;3.35;;;;;;;22.41;59.30;101668.23;1778695;78;21475;-45
2021/10/04 04:43:49;;;;;;;5.65;2.75;;;;;;;22.40;59.32;101678.52;1773874;78;21101;-44
2021/10/04 04:46:15;;;;;;;3.77;2.10;;;;;;;22.43;59.30;101684.83;1789053;78;21313;-47
2021/10/04 04:48:41;;;;;;;14.93;5.62;;;;;;;22.47;59.35;101683.08;1776263;78;20861;-46
2021/10/04 04:51:07;;;;;;;50.20;16.00;;;;;;;22.51;59.45;101676.34;1814049;77;20976;-43
2021/10/04 04:53:33;;;;;;;122.15;36.70;;;;;;;22.55;59.56;101679.58;1813302;77;20894;-47
2021/10/04 04:56:00;;;;;;;123.70;33.67;;;;;;;22.59;59.67;101685.32;1835721;76;21093;-45
2021/10/04 04:58:26;;;;;;;30.23;10.88;;;;;;;22.59;59.76;101693.08;1828383;77;21515;-44
2021/10/04 05:00:52;;;;;;;9.85;5.03;;;;;;;22.61;59.81;101694.99;1822681;77;21064;-45
2021/10/04 05:03:18;;;;;;;122.67;34.85;;;;;;;22.63;59.83;101691.33;1816601;76;21609;-45
2021/10/04 05:05:45;;;;;;;53.95;15.03;;;;;;;22.64;59.82;101686.61;1791630;77;21101;-44
2021/10/04 05:08:11;;;;;;;27.55;9.85;;;;;;;22.64;59.84;101690.77;1792426;78;21469;-45
2021/10/04 05:10:37;;;;;;;7.70;4.05;;;;;;;22.64;59.79;101688.81;1789420;77;21301;-46
2021/10/04 05:13:03;;;;;;;10.63;6.30;;;;;;;22.63;59.80;101688.55;1774736;79;20958;-44
2021/10/04 05:15:30;;;;;;;11.40;5.58;;;;;;;22.63;59.81;101691.33;1798484;77;21130;-47
2021/10/04 05:17:57;;;;;;;124.27;47.48;;;;;;;22.61;59.83;101689.45;1796574;78;21027;-47
2021/10/04 05:20:23;;;;;;;224.60;77.45;;;;;;;22.59;59.88;101686.14;1804576;77;21113;-46
2021/10/04 05:22:49;;;;;;;410.00;168.55;;;;;;;22.57;59.94;101689.81;1796817;78;22106;-48
2021/10/04 05:25:16;;;;;;;555.25;205.52;;;;;;;22.59;59.99;101695.85;1794366;78;21046;-45
2021/10/04 05:27:42;;;;;;;527.88;184.50;;;;;;;22.62;60.10;101694.40;1799045;77;21038;-51
2021/10/04 05:30:10;;;;;;;463.27;147.98;;;;;;;22.64;60.24;101697.70;1795024;78;21896;-46
2021/10/04 05:32:37;;;;;;;105.43;30.37;;;;;;;22.65;60.40;101700.17;1797591;77;21080;-45
2021/10/04 05:35:04;;;;;;;64.35;17.23;;;;;;;22.67;60.51;101701.23;1793069;77;21026;-48
2021/10/04 05:37:30;;;;;;;36.93;11.22;;;;;;;22.67;60.57;101704.00;1806128;77;21099;-46
2021/10/04 05:39:56;;;;;;;170.17;53.70;;;;;;;22.65;60.60;101702.95;1788347;78;20888;-45
2021/10/04 05:42:22;;;;;;;65.00;19.20;;;;;;;22.66;60.60;101705.16;1778665;79;20956;-44
2021/10/04 05:44:49;;;;;;;40.88;13.15;;;;;;;22.65;60.58;101702.13;1804572;77;21097;-47
2021/10/04 05:47:15;;;;;;;32.15;11.75;;;;;;;22.64;60.58;101706.02;1798441;77;21331;-44
2021/10/04 05:49:41;;;;;;;30.80;10.13;;;;;;;22.61;60.57;101700.55;1806284;77;21037;-47
2021/10/04 05:52:07;;;;;;;23.02;9.05;;;;;;;22.59;60.56;101704.73;1805011;77;20903;-45
2021/10/04 05:54:33;;;;;;;32.28;9.38;;;;;;;22.57;60.56;101705.06;1798584;77;20897;-45
2021/10/04 05:56:59;;;;;;;22.60;8.88;;;;;;;22.56;60.55;101712.30;1799504;78;20923;-47
2021/10/04 05:59:25;;;;;;;26.05;9.18;;;;;;;22.52;60.55;101705.16;1784830;79;21047;-46
2021/10/04 06:01:51;;;;;;;21.10;9.25;;;;;;;22.50;60.56;101704.64;1785744;77;22632;-49
2021/10/04 06:04:18;;;;;;;21.97;7.97;;;;;;;22.47;60.55;101708.03;1788166;78;21153;-44
2021/10/04 06:06:44;;;;;;;26.57;8.30;;;;;;;22.47;60.57;101709.42;1836256;76;21075;-47
2021/10/04 06:09:10;;;;;;;17.73;7.33;;;;;;;22.49;60.61;101709.13;1824792;76;20914;-46
2021/10/04 06:11:36;;;;;;;17.90;7.22;;;;;;;22.50;60.73;101717.11;1822240;76;21075;-45
2021/10/04 06:14:02;;;;;;;22.48;8.05;;;;;;;22.51;60.80;101717.94;1821972;76;21049;-45
2021/10/04 06:16:29;;;;;;;24.63;8.05;;;;;;;22.52;60.86;101727.35;1819635;76;20977;-45
2021/10/04 06:18:55;;;;;;;19.10;7.87;;;;;;;22.52;60.89;101728.73;1828345;76;21437;-49
2021/10/04 06:21:21;;;;;;;17.73;6.95;;;;;;;22.52;60.88;101726.52;1827975;77;21024;-46
2021/10/04 06:23:47;;;;;;;18.57;7.75;;;;;;;22.52;60.81;101737.62;1833230;77;21444;-46
2021/10/04 06:26:14;;;;;;;21.68;8.05;;;;;;;22.51;60.79;101738.73;1828721;77;20877;-46
2021/10/04 06:28:40;;;;;;;18.77;7.78;;;;;;;22.49;60.72;101735.47;1819004;76;21124;-44
2021/10/04 06:31:06;;;;;;;18.80;7.28;;;;;;;22.48;60.71;101745.73;1825838;76;20853;-44
2021/10/04 06:33:32;;;;;;;14.00;6.72;;;;;;;22.45;60.66;101752.47;1826381;76;21084;-44
2021/10/04 06:35:58;;;;;;;13.18;6.47;;;;;;;22.43;60.63;101745.00;1812236;76;21318;-45
2021/10/04 06:38:24;;;;;;;17.52;7.08;;;;;;;22.41;60.62;101750.84;1820713;77;20887;-48
2021/10/04 06:40:50;;;;;;;14.25;6.42;;;;;;;22.37;60.60;101749.00;1827860;76;21095;-44
2021/10/04 06:43:16;;;;;;;14.65;6.95;;;;;;;22.33;60.59;101748.79;1820461;77;21203;-45
2021/10/04 06:45:42;;;;;;;14.73;6.67;;;;;;;22.30;60.62;101750.80;1825573;76;21028;-45
2021/10/04 06:48:08;;;;;;;16.45;6.12;;;;;;;22.27;60.60;101748.65;1830019;76;21972;-50
2021/10/04 06:50:34;;;;;;;16.67;5.97;;;;;;;22.26;60.64;101747.83;1834592;77;20973;-46
2021/10/04 06:53:00;;;;;;;15.35;6.10;;;;;;;22.28;60.68;101752.48;1818008;76;20914;-45
2021/10/04 06:55:26;;;;;;;16.73;5.80;;;;;;;22.30;60.78;101749.41;1808321;77;21069;-45
2021/10/04 06:57:52;;;;;;;18.70;6.72;;;;;;;22.33;60.88;101747.41;1829063;77;20982;-48
2021/10/04 07:00:21;;;;;;;15.95;6.35;;;;;;;22.33;60.95;101750.17;1823969;77;21284;-48
2021/10/04 07:02:52;;;;;;;14.43;6.05;;;;;;;22.33;60.94;101751.00;1821814;76;21017;-49
2021/10/04 07:05:19;;;;;;;;;;;;;;;22.33;60.91;101750.17;1840225;76;21047;-47
2021/10/04 07:07:46;;;;;;;17.37;6.97;;;;;;;22.32;60.89;101749.35;1861348;76;20198;-45
2021/10/04 07:10:12;;;;;;;18.75;6.75;;;;;;;22.30;60.85;101754.40;1854572;76;21079;-47
2021/10/04 07:12:38;;;;;;;16.45;6.10;;;;;;;22.27;60.79;101754.19;1858548;76;21491;-44
2021/10/04 07:15:06;;;;;;;11.97;6.10;;;;;;;22.25;60.74;101760.03;1855830;76;21056;-45
2021/10/04 07:17:32;;;;;;;11.88;5.80;;;;;;;22.23;60.71;101762.86;1821753;77;21025;-44
2021/10/04 07:19:58;;;;;;;12.70;5.75;;;;;;;22.21;60.69;101766.48;1846714;77;21451;-45
2021/10/04 07:22:24;;;;;;;13.10;6.08;;;;;;;22.17;60.66;101763.52;1839872;77;21043;-45
2021/10/04 07:24:50;;;;;;;12.85;5.87;;;;;;;22.14;60.64;101768.29;1832065;77;21501;-45
2021/10/04 07:27:17;;;;;;;11.50;5.60;;;;;;;22.13;60.63;101771.36;1774062;79;21115;-45
2021/10/04 07:29:44;;;;;;;12.43;4.95;;;;;;;22.09;60.65;101768.38;1790600;78;21411;-45
2021/10/04 07:32:11;;;;;;;17.85;6.20;;;;;;;22.07;60.66;101767.84;1780170;80;38645;-46
2021/10/04 07:34:37;;;;;;;10.58;5.30;;;;;;;22.05;60.67;101772.05;1760239;80;21033;-45
2021/10/04 07:37:03;;;;;;;14.40;5.90;;;;;;;22.06;60.65;101770.94;1826366;77;22098;-44
2021/10/04 07:39:29;;;;;;;13.83;5.17;;;;;;;22.07;60.70;101765.63;1780057;79;21070;-45
2021/10/04 07:41:57;;;;;;;11.33;4.85;;;;;;;22.10;60.82;101767.81;1805738;78;21030;-47
2021/10/04 07:44:24;;;;;;;10.72;4.95;;;;;;;22.12;60.91;101761.39;1812956;78;21058;-45
2021/10/04 07:46:51;;;;;;;10.15;4.83;;;;;;;22.13;60.96;101766.64;1787470;78;21424;-47
2021/10/04 07:49:17;;;;;;;10.48;4.95;;;;;;;22.14;60.96;101764.12;1803271;78;21234;-46
2021/10/04 07:51:43;;;;;;;10.38;5.05;;;;;;;22.15;60.94;101769.11;1821042;77;21073;-47
2021/10/04 07:54:10;;;;;;;12.15;4.92;;;;;;;22.15;60.88;101764.95;1806391;78;21057;-45
2021/10/04 07:56:39;;;;;;;11.12;4.92;;;;;;;22.14;60.82;101762.75;1804692;78;21100;-44
2021/10/04 07:59:07;;;;;;;10.68;5.03;;;;;;;22.13;60.77;101758.88;1812247;77;21104;-49
2021/10/04 08:01:34;;;;;;;11.40;5.45;;;;;;;22.11;60.70;101759.17;1810469;78;21814;-46
2021/10/04 08:04:00;;;;;;;10.30;5.53;;;;;;;22.10;60.64;101760.33;1799365;78;21488;-46
2021/10/04 08:06:26;;;;;;;8.83;4.95;;;;;;;22.09;60.62;101760.62;1795153;79;21011;-46
2021/10/04 08:08:54;;;;;;;13.28;5.15;;;;;;;22.06;60.58;101755.14;1774241;79;21323;-46
2021/10/04 08:11:20;;;;;;;10.43;5.40;;;;;;;22.04;60.57;101759.32;1771038;79;21478;-44
2021/10/04 08:13:46;;;;;;;9.18;4.53;;;;;;;22.01;60.54;101757.17;1794744;79;21270;-44
2021/10/04 08:16:14;;;;;;;8.68;4.42;;;;;;;21.98;60.55;101755.80;1782395;79;21682;-46
2021/10/04 08:18:40;;;;;;;10.58;4.60;;;;;;;21.97;60.56;101751.41;1790093;79;21052;-46
2021/10/04 08:21:06;;;;;;;8.15;4.67;;;;;;;21.94;60.53;101751.20;1804100;79;21038;-44
2021/10/04 08:23:32;;;;;;;8.98;4.50;;;;;;;21.92;60.55;101752.03;1826325;76;21033;-47
2021/10/04 08:25:58;;;;;;;8.28;4.10;;;;;;;21.93;60.57;101744.02;1820536;76;21103;-45
2021/10/04 08:28:24;;;;;;;8.35;4.42;;;;;;;21.94;60.60;101742.30;1838901;76;21483;-43
2021/10/04 08:30:51;;;;;;;7.33;3.85;;;;;;;21.98;60.69;101753.03;1826510;77;21091;-45
2021/10/04 08:33:17;;;;;;;7.90;4.05;;;;;;;22.01;60.79;101753.02;1829405;76;21058;-45
2021/10/04 08:35:43;;;;;;;8.15;4.45;;;;;;;22.02;60.85;101751.89;1838164;76;20866;-45
2021/10/04 08:38:09;;;;;;;8.88;4.40;;;;;;;22.04;60.87;101753.78;1833304;77;22090;-47
2021/10/04 08:40:37;;;;;;;10.32;4.17;;;;;;;22.05;60.82;101760.41;1816227;77;20871;-49
2021/10/04 08:43:03;;;;;;;6.80;4.00;;;;;;;22.05;60.78;101745.73;1835487;77;21044;-48
2021/10/04 08:45:29;;;;;;;7.45;4.50;;;;;;;22.06;60.71;101748.77;1830150;77;21440;-46
2021/10/04 08:47:58;;;;;;;10.23;4.37;;;;;;;22.05;60.63;101749.33;1824660;77;21078;-44
2021/10/04 08:50:27;;;;;;;7.70;3.87;;;;;;;22.04;60.60;101748.23;1834434;77;22087;-45
2021/10/04 08:52:53;;;;;;;7.28;4.22;;;;;;;22.02;60.54;101743.02;1836431;76;21056;-44
2021/10/04 08:55:21;;;;;;;9.70;4.33;;;;;;;22.01;60.49;101747.47;1831507;76;21037;-46
2021/10/04 08:57:48;;;;;;;7.28;3.75;;;;;;;21.99;60.46;101744.16;1833764;76;21055;-47
2021/10/04 09:00:15;;;;;;;5.05;3.40;;;;;;;21.97;60.44;101740.89;1823527;77;21650;-44
2021/10/04 09:02:41;;;;;;;8.75;3.95;;;;;;;21.94;60.41;101735.37;1843260;76;21397;-45
2021/10/04 09:05:22;;;;;;;9.05;4.30;;;;;;;21.92;60.41;101732.11;1832196;76;21016;-45
2021/10/04 09:07:53;;;;;;;7.25;3.87;;;;;;;21.89;60.40;101728.53;1840666;77;21223;-47
2021/10/04 09:10:25;;;;;;;7.70;4.25;;;;;;;21.87;60.39;101728.00;1824138;76;21834;-47
2021/10/04 09:13:01;;;;;;;6.25;3.45;;;;;;;21.85;60.39;101734.42;1830571;76;20966;-46
2021/10/04 09:15:43;;;;;;;7.28;3.55;;;;;;;21.84;60.40;101732.77;1826224;76;21052;-46
2021/10/04 09:18:25;;;;;;;8.13;3.77;;;;;;;21.84;60.41;101730.83;1839890;76;20961;-45
2021/10/04 09:21:09;;;;;;;7.42;3.90;;;;;;;21.87;60.49;101722.46;1832446;77;21477;-44
2021/10/04 09:23:52;;;;;;;6.70;3.47;;;;;;;21.90;60.57;101727.38;1828971;76;20968;-45
2021/10/04 09:26:30;;;;;;;7.53;3.65;;;;;;;21.93;60.67;101734.31;1834761;76;21627;-47
2021/10/04 09:29:03;;;;;;;7.75;3.60;;;;;;;21.93;60.68;101714.92;1826946;77;21115;-45
2021/10/04 09:31:34;;;;;;;6.37;3.90;;;;;;;21.94;60.64;101717.37;1826222;77;21087;-47
2021/10/04 09:34:12;;;;;;;;;;;;;;;21.94;60.58;101711.83;1819398;76;21591;-46
2021/10/04 09:36:45;;;;;;;7.10;3.72;;;;;;;21.94;60.56;101715.98;1837463;76;20220;-46
2021/10/04 09:39:18;;;;;;;8.23;3.85;;;;;;;21.93;60.50;101713.53;1833309;76;21010;-46
2021/10/04 09:42:14;;;;;;;6.75;3.62;;;;;;;21.91;60.45;101706.05;1832556;76;21943;-49
2021/10/04 09:44:57;;;;;;;5.95;3.40;;;;;;;21.91;60.40;101701.89;1829843;77;21454;-46
2021/10/04 09:47:40;;;;;;;5.80;3.40;;;;;;;21.89;60.36;101688.36;1831361;77;21040;-46
2021/10/04 09:50:09;;;;;;;7.83;3.25;;;;;;;21.87;60.34;101690.59;1821141;77;20966;-51
2021/10/04 09:52:56;;;;;;;5.58;3.40;;;;;;;21.86;60.30;101689.78;1822309;77;22207;-45
2021/10/04 09:55:41;;;;;;;7.40;3.83;;;;;;;21.85;60.29;101688.72;1825096;76;21156;-47
2021/10/04 09:58:18;;;;;;;7.75;3.80;;;;;;;21.85;60.28;101690.89;1834280;77;21541;-46
2021/10/04 10:01:02;;;;;;;5.60;3.33;;;;;;;21.84;60.27;101683.73;1829963;76;21047;-45
2021/10/04 10:03:42;;;;;;;5.72;3.27;;;;;;;21.83;60.25;101686.80;1828028;76;21453;-45
2021/10/04 10:06:08;;;;;;;4.80;2.87;;;;;;;21.82;60.25;101680.99;1817639;76;21072;-44
2021/10/04 10:08:34;;;;;;;4.12;2.80;;;;;;;21.83;60.25;101675.16;1828922;76;22100;-47
2021/10/04 10:11:06;;;;;;;6.58;2.92;;;;;;;21.88;60.29;101677.84;1825317;76;21120;-44
2021/10/04 10:13:33;;;;;;;4.47;2.90;;;;;;;21.92;60.38;101679.47;1818560;76;21079;-46
2021/10/04 10:16:05;;;;;;;4.45;2.90;;;;;;;21.97;60.44;101675.22;1827105;77;21389;-50
2021/10/04 10:19:03;;;;;;;4.25;2.58;;;;;;;22.01;60.51;101672.66;1834781;76;21629;-46
2021/10/04 10:21:31;;;;;;;5.25;3.10;;;;;;;22.02;60.47;101673.73;1833704;77;21877;-45
2021/10/04 10:24:07;;;;;;;8.30;3.22;;;;;;;22.05;60.40;101664.80;1833503;77;21043;-47
2021/10/04 10:26:49;;;;;;;5.10;2.47;;;;;;;22.06;60.34;101672.00;1831953;77;21063;-45
2021/10/04 10:29:21;;;;;;;5.67;3.30;;;;;;;22.06;60.25;101665.63;1836872;76;20976;-45
2021/10/04 10:31:56;;;;;;;5.10;3.12;;;;;;;22.06;60.14;101664.25;1844827;76;21502;-47
2021/10/04 10:34:39;;;;;;;6.58;3.15;;;;;;;22.05;60.07;101660.65;1833702;76;23274;-45
2021/10/04 10:37:24;;;;;;;5.97;3.33;;;;;;;22.04;59.99;101657.61;1833361;76;21586;-45
2021/10/04 10:39:55;;;;;;;5.70;2.92;;;;;;;22.03;59.95;101653.75;1824957;76;21091;-44
2021/10/04 10:42:31;;;;;;;5.20;3.10;;;;;;;22.00;59.91;101649.66;1834338;76;21051;-44
2021/10/04 10:45:04;;;;;;;4.28;2.85;;;;;;;21.97;59.90;101647.52;1823196;77;21055;-45
2021/10/04 10:47:39;;;;;;;6.35;2.77;;;;;;;21.94;59.88;101639.78;1833448;77;21117;-46
2021/10/04 10:50:45;;;;;;;5.47;2.80;;;;;;;21.94;59.86;101640.37;1834305;76;20988;-45
2021/10/04 10:53:27;;;;;;;5.22;2.90;;;;;;;21.93;59.84;101635.96;1834494;76;21099;-46
2021/10/04 10:56:03;;;;;;;4.92;2.77;;;;;;;21.90;59.84;101630.42;1833444;76;21044;-47
2021/10/04 10:58:33;;;;;;;5.58;2.67;;;;;;;21.88;59.83;101622.43;1828706;76;20982;-45
2021/10/04 11:01:15;;;;;;;4.50;2.90;;;;;;;21.86;59.82;101618.30;1823306;76;21945;-45
2021/10/04 11:03:53;;;;;;;5.58;2.60;;;;;;;21.85;59.82;101611.94;1819077;77;21653;-45
2021/10/04 11:06:22;;;;;;;5.12;2.80;;;;;;;21.83;59.80;101610.06;1843594;76;21036;-46
2021/10/04 11:08:53;;;;;;;3.00;2.08;;;;;;;21.86;59.82;101609.44;1849378;76;21079;-46
2021/10/04 11:11:22;;;;;;;4.83;2.55;;;;;;;21.90;59.88;101600.53;1828640;77;21538;-44
2021/10/04 11:14:06;;;;;;;5.35;3.00;;;;;;;21.94;59.95;101595.45;1816156;77;21238;-45
2021/10/04 11:16:38;;;;;;;6.70;2.72;;;;;;;21.99;60.04;101584.84;1836582;77;21052;-44
2021/10/04 11:19:05;;;;;;;4.35;2.60;;;;;;;22.03;60.05;101583.91;1829951;77;21018;-48
2021/10/04 11:21:31;;;;;;;4.92;2.75;;;;;;;22.06;60.01;101579.73;1839155;77;20978;-44
2021/10/04 11:24:04;;;;;;;4.17;2.42;;;;;;;22.09;59.93;101577.72;1833018;77;21342;-46
2021/10/04 11:26:34;;;;;;;6.40;3.20;;;;;;;22.11;59.83;101575.44;1829293;77;23175;-46